createdAt,value
2018-04-06T00:04:51.955Z,13.70
2018-04-06T00:09:52.973Z,12.57
2018-04-06T00:14:53.970Z,11.60
2018-04-06T00:19:54.947Z,9.80
2018-04-06T00:24:55.935Z,11.20
2018-04-06T00:29:57.671Z,11.40
2018-04-06T00:34:58.668Z,7.33
2018-04-06T00:40:00.398Z,13.17
2018-04-06T00:45:01.413Z,8.77
2018-04-06T00:50:02.399Z,8.17
2018-04-06T00:55:03.378Z,12.03
2018-04-06T01:00:04.377Z,11.43
2018-04-06T01:05:06.096Z,11.00
2018-04-06T01:10:07.100Z,6.50
2018-04-06T01:15:08.807Z,12.40
2018-04-06T01:20:09.792Z,14.33
2018-04-06T01:25:10.824Z,10.67
2018-04-06T01:30:11.808Z,10.40
2018-04-06T01:35:12.809Z,10.60
2018-04-06T01:40:14.531Z,6.67
2018-04-06T01:45:15.534Z,11.50
2018-04-06T01:50:17.259Z,10.30
2018-04-06T01:55:18.240Z,6.27
2018-04-06T02:00:19.242Z,13.47
2018-04-06T02:05:20.217Z,7.27
2018-04-06T02:10:21.223Z,8.60
2018-04-06T02:15:22.222Z,7.97
2018-04-06T02:20:23.227Z,10.47
2018-04-06T02:25:24.204Z,7.73
2018-04-06T02:30:25.936Z,11.63
2018-04-06T02:35:26.911Z,10.07
2018-04-06T02:40:27.915Z,10.77
2018-04-06T02:45:28.900Z,10.93
2018-04-06T02:50:29.875Z,11.17
2018-04-06T02:55:30.843Z,8.00
2018-04-06T03:00:31.846Z,10.00
2018-04-06T03:05:32.815Z,11.60
2018-04-06T03:10:33.794Z,13.60
2018-04-06T03:15:34.801Z,12.33
2018-04-06T03:20:36.504Z,17.70
2018-04-06T03:25:37.500Z,10.30
2018-04-06T03:30:38.483Z,12.73
2018-04-06T03:35:40.204Z,14.93
2018-04-06T03:40:41.197Z,9.97
2018-04-06T03:45:42.164Z,12.67
2018-04-06T03:50:43.926Z,15.27
2018-04-06T03:55:44.911Z,12.40
2018-04-06T04:00:46.658Z,14.90
2018-04-06T04:05:47.639Z,15.63
2018-04-06T04:10:49.387Z,18.10
2018-04-06T04:15:50.375Z,12.20
2018-04-06T04:20:52.140Z,15.40
2018-04-06T04:25:53.874Z,16.40
2018-04-06T04:30:54.861Z,14.73
2018-04-06T04:35:55.851Z,10.73
2018-04-06T04:40:56.841Z,12.33
2018-04-06T04:45:57.835Z,11.13
2018-04-06T04:50:58.845Z,10.33
2018-04-06T04:55:59.835Z,10.13
2018-04-06T05:01:00.823Z,10.93
2018-04-06T05:06:02.564Z,10.43
2018-04-06T05:11:03.547Z,14.27
2018-04-06T05:16:05.296Z,11.47
2018-04-06T05:21:06.274Z,13.30
2018-04-06T05:26:08.031Z,19.73
2018-04-06T05:31:09.039Z,11.27
2018-04-06T05:36:10.032Z,15.63
2018-04-06T05:41:11.016Z,13.97
2018-04-06T05:46:12.008Z,16.27
2018-04-06T05:51:12.987Z,17.00
2018-04-06T05:56:14.019Z,36.73
2018-04-06T06:01:14.996Z,13.80
2018-04-06T06:06:15.975Z,9.97
2018-04-06T06:11:16.997Z,12.60
2018-04-06T06:16:17.987Z,11.53
2018-04-06T06:21:18.982Z,11.57
2018-04-06T06:26:20.703Z,8.03
2018-04-06T06:31:21.705Z,7.40
2018-04-06T06:36:22.696Z,10.57
2018-04-06T06:41:23.687Z,6.83
2018-04-06T06:46:24.697Z,6.87
2018-04-06T06:51:25.755Z,12.93
2018-04-06T06:56:27.513Z,7.33
2018-04-06T07:01:29.247Z,4.40
2018-04-06T07:06:30.240Z,6.30
2018-04-06T07:11:31.239Z,5.30
2018-04-06T07:16:32.235Z,8.30
2018-04-06T07:21:33.228Z,7.37
2018-04-06T07:26:34.965Z,7.77
2018-04-06T07:31:35.962Z,7.97
2018-04-06T07:36:37.708Z,6.00
2018-04-06T07:41:38.736Z,4.67
2018-04-06T07:46:39.734Z,4.50
2018-04-06T07:51:41.495Z,6.23
2018-04-06T07:56:42.482Z,4.40
2018-04-06T08:01:44.215Z,5.60
2018-04-06T08:06:45.214Z,4.40
2018-04-06T08:11:46.968Z,5.90
2018-04-06T08:16:47.983Z,5.37
2018-04-06T08:21:49.807Z,7.57
2018-04-06T08:26:51.579Z,5.23
2018-04-06T08:31:53.330Z,3.53
2018-04-06T08:36:54.320Z,3.80
2018-04-06T08:41:55.317Z,4.63
2018-04-06T08:46:56.311Z,4.60
2018-04-06T08:51:57.312Z,3.53
2018-04-06T08:56:59.076Z,8.80
2018-04-06T09:02:00.811Z,4.73
2018-04-06T09:07:01.803Z,3.13
2018-04-06T09:12:03.543Z,3.43
2018-04-06T09:17:04.545Z,7.10
2018-04-06T09:22:06.289Z,4.47
2018-04-06T09:27:07.280Z,3.10
2018-04-06T09:32:09.018Z,7.23
2018-04-06T09:37:10.007Z,4.13
2018-04-06T09:42:11.749Z,5.00
2018-04-06T09:47:12.747Z,2.80
2018-04-06T09:52:14.499Z,3.10
2018-04-06T09:57:15.490Z,3.17
2018-04-06T10:02:16.552Z,4.63
2018-04-06T10:07:17.567Z,4.67
2018-04-06T10:12:18.570Z,4.03
2018-04-06T10:17:19.592Z,3.73
2018-04-06T10:22:21.331Z,3.67
2018-04-06T10:27:22.323Z,5.70
2018-04-06T10:32:23.304Z,5.90
2018-04-06T10:37:24.294Z,6.30
2018-04-06T10:42:25.286Z,2.43
2018-04-06T10:47:26.280Z,3.47
2018-04-06T10:52:27.269Z,4.20
2018-04-06T10:57:28.251Z,3.47
2018-04-06T11:02:29.252Z,3.40
2018-04-06T11:07:30.271Z,5.87
2018-04-06T11:12:31.259Z,6.77
2018-04-06T11:17:36.268Z,5.27
2018-04-06T11:22:39.371Z,5.47
2018-04-06T11:27:40.359Z,2.83
2018-04-06T11:32:42.103Z,4.93
2018-04-06T11:37:43.094Z,6.10
2018-04-06T11:42:45.060Z,3.33
2018-04-06T11:47:46.077Z,2.70
2018-04-06T11:52:47.083Z,3.73
2018-04-06T11:57:48.839Z,5.33
2018-04-06T12:02:49.848Z,3.20
2018-04-06T12:07:50.842Z,3.60
2018-04-06T12:12:51.836Z,3.60
2018-04-06T12:17:53.575Z,3.70
2018-04-06T12:22:54.562Z,3.07
2018-04-06T12:27:55.556Z,4.30
2018-04-06T12:38:25.334Z,6.60
2018-04-06T12:43:26.322Z,5.87
2018-04-06T12:48:27.302Z,4.33
2018-04-06T12:53:28.283Z,4.07
2018-04-06T12:58:29.260Z,2.90
2018-04-06T13:03:30.300Z,5.87
2018-04-06T13:08:31.292Z,4.70
2018-04-06T13:13:32.280Z,3.40
2018-04-06T13:18:33.268Z,3.70
2018-04-06T13:23:34.332Z,4.43
2018-04-06T13:28:35.304Z,3.97
2018-04-06T13:33:36.295Z,2.90
2018-04-06T13:38:37.304Z,5.17
2018-04-06T13:43:38.339Z,5.20
2018-04-06T13:48:40.098Z,4.10
2018-04-06T13:53:41.115Z,2.87
2018-04-06T13:58:42.116Z,4.00
2018-04-06T14:03:43.095Z,4.53
2018-04-06T14:08:44.839Z,4.20
2018-04-06T14:13:45.846Z,4.03
2018-04-06T14:18:46.863Z,5.30
2018-04-06T14:23:47.842Z,6.33
2018-04-06T14:28:49.588Z,6.37
2018-04-06T14:33:50.607Z,3.40
2018-04-06T14:38:51.678Z,3.07
2018-04-06T14:43:52.693Z,5.13
2018-04-06T14:48:53.732Z,7.23
2018-04-06T14:53:54.728Z,3.90
2018-04-06T14:58:55.783Z,3.90
2018-04-06T15:03:56.792Z,3.23
2018-04-06T15:08:57.842Z,6.07
2018-04-06T15:13:58.904Z,5.17
2018-04-06T15:19:06.804Z,4.90
2018-04-06T15:24:07.812Z,5.27
2018-04-06T15:29:09.539Z,4.77
2018-04-06T15:34:10.536Z,5.50
2018-04-06T15:39:12.280Z,5.97
2018-04-06T15:44:13.289Z,5.97
2018-04-06T15:49:15.028Z,7.30
2018-04-06T15:56:22.396Z,4.83
2018-04-06T16:01:23.523Z,6.37
2018-04-06T16:06:24.508Z,6.37
2018-04-06T16:11:25.521Z,14.63
2018-04-06T16:16:26.524Z,4.80
2018-04-06T16:21:27.514Z,6.40
2018-04-06T16:26:28.505Z,6.13
2018-04-06T16:31:29.595Z,6.47
2018-04-06T16:36:30.595Z,6.53
2018-04-06T16:41:31.598Z,5.50
2018-04-06T16:46:33.335Z,5.60
2018-04-06T16:51:34.333Z,4.80
2018-04-06T16:56:36.060Z,10.17
2018-04-06T17:01:37.043Z,5.17
2018-04-06T17:06:38.033Z,8.87
2018-04-06T17:11:39.004Z,6.10
2018-04-06T17:16:39.971Z,6.33
2018-04-06T17:21:40.951Z,6.67
2018-04-06T17:26:41.944Z,7.20
2018-04-06T17:31:43.736Z,7.70
2018-04-06T17:36:44.745Z,6.40
2018-04-06T17:41:45.724Z,7.30
2018-04-06T17:46:46.712Z,8.70
2018-04-06T17:51:47.752Z,9.40
2018-04-06T17:56:48.767Z,7.40
2018-04-06T18:01:49.797Z,8.13
2018-04-06T18:06:50.784Z,7.30
2018-04-06T18:11:51.763Z,7.87
2018-04-06T18:16:52.760Z,7.90
2018-04-06T18:21:53.803Z,8.17
2018-04-06T18:26:55.571Z,7.90
2018-04-06T18:31:57.310Z,8.13
2018-04-06T18:36:58.343Z,7.93
2018-04-06T18:42:00.049Z,12.07
2018-04-06T18:47:01.036Z,7.03
2018-04-06T18:52:02.803Z,10.00
2018-04-06T18:57:03.804Z,8.00
2018-04-06T19:02:04.810Z,7.20
2018-04-06T19:07:05.832Z,6.03
2018-04-06T19:12:06.836Z,9.67
2018-04-06T19:17:08.652Z,8.73
2018-04-06T19:22:09.684Z,11.00
2018-04-06T19:27:11.441Z,16.13
2018-04-06T19:32:13.207Z,8.60
2018-04-06T19:37:14.201Z,9.73
2018-04-06T19:42:15.210Z,9.93
2018-04-06T19:47:16.374Z,6.87
2018-04-06T19:52:17.406Z,8.47
2018-04-06T19:57:18.401Z,7.90
2018-04-06T20:02:19.385Z,8.17
2018-04-06T20:07:20.379Z,9.10
2018-04-06T20:12:21.377Z,6.93
2018-04-06T20:17:22.392Z,8.40
2018-04-06T20:22:23.386Z,7.40
2018-04-06T20:27:24.760Z,7.23
2018-04-06T20:32:26.533Z,8.43
2018-04-06T20:37:27.591Z,8.77
2018-04-06T20:42:28.647Z,8.40
2018-04-06T20:47:29.739Z,7.70
2018-04-06T20:52:30.893Z,7.57
2018-04-06T20:57:32.045Z,7.77
2018-04-06T21:02:33.837Z,7.20
2018-04-06T21:07:34.843Z,10.27
2018-04-06T21:12:35.834Z,9.10
2018-04-06T21:17:37.565Z,7.87
2018-04-06T21:22:38.573Z,10.57
2018-04-06T21:27:39.582Z,14.80
2018-04-06T21:32:40.591Z,8.07
2018-04-06T21:37:42.311Z,8.67
2018-04-06T21:42:43.307Z,7.70
2018-04-06T21:47:45.043Z,9.43
2018-04-06T21:52:46.035Z,11.10
2018-04-06T21:57:47.031Z,6.77
2018-04-06T22:02:48.055Z,6.30
2018-04-06T22:07:49.856Z,10.13
2018-04-06T22:12:58.035Z,8.03
2018-04-06T22:17:59.027Z,9.43
2018-04-06T22:23:00.780Z,10.20
2018-04-06T22:28:01.779Z,9.60
2018-04-06T22:33:02.772Z,9.93
2018-04-06T22:38:03.763Z,12.40
2018-04-06T22:43:05.499Z,8.17
2018-04-06T22:48:06.474Z,8.00
2018-04-06T22:53:07.452Z,8.67
2018-04-06T22:58:09.275Z,10.10
2018-04-06T23:03:10.263Z,10.13
2018-04-06T23:08:11.245Z,12.67
2018-04-06T23:13:12.967Z,8.70
2018-04-06T23:18:13.951Z,7.87
2018-04-06T23:23:14.931Z,10.77
2018-04-06T23:28:16.655Z,9.33
2018-04-06T23:33:17.682Z,9.40
2018-04-06T23:38:18.688Z,8.13
2018-04-06T23:43:19.675Z,7.87
2018-04-06T23:48:21.404Z,11.90
2018-04-06T23:53:22.399Z,9.00
2018-04-06T23:58:23.390Z,13.00
